createdAt,value
2023-04-01T00:00:51.401Z,0.00
2023-04-01T00:01:51.284Z,0.00
2023-04-01T00:02:51.235Z,0.00
2023-04-01T00:03:51.392Z,0.00
2023-04-01T00:04:51.290Z,0.00
2023-04-01T00:05:51.419Z,0.00
2023-04-01T00:06:51.347Z,0.00
2023-04-01T00:07:51.283Z,0.00
2023-04-01T00:08:51.355Z,0.00
2023-04-01T00:09:51.218Z,0.00
2023-04-01T00:10:51.231Z,0.00
2023-04-01T00:11:51.271Z,0.00
2023-04-01T00:12:51.209Z,0.00
2023-04-01T00:13:51.150Z,0.00
2023-04-01T00:14:51.157Z,0.00
2023-04-01T00:15:51.205Z,0.00
2023-04-01T00:16:51.293Z,0.00
2023-04-01T00:17:51.167Z,0.00
2023-04-01T00:18:51.247Z,0.00
2023-04-01T00:19:51.142Z,0.00
2023-04-01T00:20:51.066Z,0.00
2023-04-01T00:21:51.152Z,0.00
2023-04-01T00:22:51.072Z,0.00
2023-04-01T00:23:51.139Z,0.00
2023-04-01T00:24:51.050Z,0.00
2023-04-01T00:25:51.033Z,0.00
2023-04-01T00:26:51.004Z,0.00
2023-04-01T00:27:51.072Z,0.00
2023-04-01T00:28:51.094Z,0.00
2023-04-01T00:29:51.012Z,0.00
2023-04-01T00:30:51.012Z,0.00
2023-04-01T00:31:51.036Z,0.00
2023-04-01T00:32:51.052Z,0.00
2023-04-01T00:33:51.036Z,0.00
2023-04-01T00:34:51.052Z,0.00
2023-04-01T00:35:51.013Z,0.00
2023-04-01T00:36:50.924Z,0.00
2023-04-01T00:37:50.921Z,0.00
2023-04-01T00:38:51.000Z,0.00
2023-04-01T00:39:50.901Z,0.00
2023-04-01T00:40:50.905Z,0.00
2023-04-01T00:41:50.924Z,0.00
2023-04-01T00:42:50.931Z,0.00
2023-04-01T00:43:50.964Z,0.00
2023-04-01T00:44:50.857Z,0.00
2023-04-01T00:45:50.900Z,0.00
2023-04-01T00:46:50.908Z,0.00
2023-04-01T00:47:50.775Z,0.00
2023-04-01T00:48:50.850Z,0.00
2023-04-01T00:49:50.894Z,0.00
2023-04-01T00:50:50.794Z,0.00
2023-04-01T00:51:50.802Z,0.00
2023-04-01T00:52:50.746Z,0.00
2023-04-01T00:53:50.747Z,0.00
2023-04-01T00:54:50.751Z,0.00
2023-04-01T00:55:50.825Z,0.00
2023-04-01T00:56:50.754Z,0.00
2023-04-01T00:57:50.718Z,0.00
2023-04-01T00:58:50.697Z,0.00
2023-04-01T00:59:50.745Z,0.00
2023-04-01T01:00:50.811Z,0.00
2023-04-01T01:01:50.630Z,0.00
2023-04-01T01:02:50.614Z,0.00
2023-04-01T01:03:50.650Z,0.00
2023-04-01T01:04:50.607Z,0.00
2023-04-01T01:05:50.910Z,0.00
2023-04-01T01:06:50.678Z,0.00
2023-04-01T01:07:50.700Z,0.00
2023-04-01T01:08:50.591Z,0.00
2023-04-01T01:09:50.675Z,0.00
2023-04-01T01:10:50.669Z,0.00
2023-04-01T01:11:50.688Z,0.00
2023-04-01T01:12:50.615Z,0.00
2023-04-01T01:13:50.546Z,0.00
2023-04-01T01:14:50.541Z,0.00
2023-04-01T01:15:50.546Z,0.00
2023-04-01T01:16:50.591Z,0.00
2023-04-01T01:17:50.705Z,0.00
2023-04-01T01:18:50.531Z,0.00
2023-04-01T01:19:50.501Z,0.00
2023-04-01T01:20:50.479Z,0.00
2023-04-01T01:21:50.554Z,0.00
2023-04-01T01:22:50.530Z,0.00
2023-04-01T01:23:50.437Z,0.00
2023-04-01T01:24:50.433Z,0.00
2023-04-01T01:25:50.439Z,0.00
2023-04-01T01:26:50.451Z,0.00
2023-04-01T01:27:50.365Z,0.00
2023-04-01T01:28:50.434Z,0.00
2023-04-01T01:29:50.349Z,0.00
2023-04-01T01:30:50.383Z,0.00
2023-04-01T01:31:50.233Z,0.00
2023-04-01T01:32:50.445Z,0.00
2023-04-01T01:33:50.322Z,0.00
2023-04-01T01:34:50.340Z,0.00
2023-04-01T01:35:50.369Z,0.00
2023-04-01T01:36:50.340Z,0.00
2023-04-01T01:37:50.412Z,0.00
2023-04-01T01:38:50.320Z,0.00
2023-04-01T01:39:50.312Z,0.00
2023-04-01T01:40:50.302Z,0.00
2023-04-01T01:41:50.320Z,0.00
2023-04-01T01:42:50.256Z,0.00
2023-04-01T01:43:50.265Z,0.00
2023-04-01T01:44:50.260Z,0.00
2023-04-01T01:45:50.285Z,0.00
2023-04-01T01:46:50.307Z,0.00
2023-04-01T01:47:50.268Z,0.00
2023-04-01T01:48:50.201Z,0.00
2023-04-01T01:49:50.264Z,0.00
2023-04-01T01:50:50.176Z,0.00
2023-04-01T01:51:50.153Z,0.00
2023-04-01T01:52:50.138Z,0.00
2023-04-01T01:53:50.188Z,0.00
2023-04-01T01:54:50.087Z,0.00
2023-04-01T01:55:50.141Z,0.00
2023-04-01T01:56:50.148Z,0.00
2023-04-01T01:57:49.970Z,0.00
2023-04-01T01:58:50.076Z,0.00
2023-04-01T01:59:50.184Z,0.00
2023-04-01T02:00:50.050Z,0.00
2023-04-01T02:01:50.126Z,0.00
2023-04-01T02:02:50.130Z,0.00
2023-04-01T02:03:50.136Z,0.00
2023-04-01T02:04:50.080Z,0.00
2023-04-01T02:05:50.089Z,0.00
2023-04-01T02:06:49.987Z,0.00
2023-04-01T02:07:50.008Z,0.00
2023-04-01T02:08:49.948Z,0.00
2023-04-01T02:09:50.042Z,0.00
2023-04-01T02:10:49.944Z,0.00
2023-04-01T02:11:49.962Z,0.00
2023-04-01T02:12:50.029Z,0.00
2023-04-01T02:13:49.931Z,0.00
2023-04-01T02:14:49.917Z,0.00
2023-04-01T02:15:49.783Z,0.00
2023-04-01T02:16:49.971Z,0.00
2023-04-01T02:17:49.934Z,0.00
2023-04-01T02:18:49.872Z,0.00
2023-04-01T02:19:49.856Z,0.00
2023-04-01T02:20:49.851Z,0.00
2023-04-01T02:21:49.923Z,0.00
2023-04-01T02:22:49.926Z,0.00
2023-04-01T02:23:49.809Z,0.00
2023-04-01T02:24:49.793Z,0.00
2023-04-01T02:25:49.765Z,0.00
2023-04-01T02:26:49.926Z,0.00
2023-04-01T02:27:49.699Z,0.00
2023-04-01T02:28:49.737Z,0.00
2023-04-01T02:29:49.730Z,0.00
2023-04-01T02:30:49.720Z,0.00
2023-04-01T02:31:49.808Z,0.00
2023-04-01T02:32:49.946Z,0.00
2023-04-01T02:33:49.732Z,0.00
2023-04-01T02:34:49.589Z,0.00
2023-04-01T02:35:49.569Z,0.00
2023-04-01T02:36:49.671Z,0.00
2023-04-01T02:37:49.753Z,0.00
2023-04-01T02:38:49.694Z,0.00
2023-04-01T02:39:49.723Z,0.00
2023-04-01T02:40:49.636Z,0.00
2023-04-01T02:41:49.621Z,0.00
2023-04-01T02:42:49.630Z,0.00
2023-04-01T02:43:49.650Z,0.00
2023-04-01T02:44:49.654Z,0.00
2023-04-01T02:45:49.568Z,0.00
2023-04-01T02:46:49.671Z,0.00
2023-04-01T02:47:49.637Z,0.00
2023-04-01T02:48:49.592Z,0.00
2023-04-01T02:49:49.512Z,0.00
2023-04-01T02:50:49.611Z,0.00
2023-04-01T02:51:49.534Z,0.00
2023-04-01T02:52:49.517Z,0.00
2023-04-01T02:53:49.462Z,0.00
2023-04-01T02:54:49.483Z,0.00
2023-04-01T02:55:49.469Z,0.00
2023-04-01T02:56:49.495Z,0.00
2023-04-01T02:57:49.461Z,0.00
2023-04-01T02:58:49.543Z,0.00
2023-04-01T02:59:49.444Z,0.00
2023-04-01T03:00:49.484Z,0.00
2023-04-01T03:01:49.424Z,0.00
2023-04-01T03:02:49.456Z,0.00
2023-04-01T03:03:49.399Z,0.00
2023-04-01T03:04:49.460Z,0.00
2023-04-01T03:05:49.222Z,0.00
2023-04-01T03:06:49.486Z,0.00
2023-04-01T03:07:49.377Z,0.00
2023-04-01T03:08:49.364Z,0.00
2023-04-01T03:09:49.434Z,0.00
2023-04-01T03:10:49.324Z,0.00
2023-04-01T03:11:49.348Z,0.00
2023-04-01T03:12:49.313Z,0.00
2023-04-01T03:13:49.278Z,0.00
2023-04-01T03:14:49.416Z,0.00
2023-04-01T03:15:49.317Z,0.00
2023-04-01T03:16:49.375Z,0.00
2023-04-01T03:17:49.334Z,0.00
2023-04-01T03:18:49.217Z,0.00
2023-04-01T03:19:49.299Z,0.00
2023-04-01T03:20:49.296Z,0.00
2023-04-01T03:21:49.303Z,0.00
2023-04-01T03:22:49.294Z,0.00
2023-04-01T03:23:49.239Z,0.00
2023-04-01T03:24:49.177Z,0.00
2023-04-01T03:25:49.280Z,0.00
2023-04-01T03:26:49.200Z,0.00
2023-04-01T03:27:49.202Z,0.00
2023-04-01T03:28:49.177Z,0.00
2023-04-01T03:29:49.187Z,0.00
2023-04-01T03:30:49.280Z,0.00
2023-04-01T03:31:49.107Z,0.00
2023-04-01T03:32:49.148Z,0.00
2023-04-01T03:33:49.095Z,0.00
2023-04-01T03:34:49.090Z,0.00
2023-04-01T03:35:49.158Z,0.00
2023-04-01T03:36:49.143Z,0.00
2023-04-01T03:37:49.055Z,0.00
2023-04-01T03:38:49.040Z,0.00
2023-04-01T03:39:49.020Z,0.00
2023-04-01T03:40:48.904Z,0.00
2023-04-01T03:41:49.079Z,0.00
2023-04-01T03:42:49.031Z,0.00
2023-04-01T03:43:49.060Z,0.00
2023-04-01T03:44:48.888Z,0.00
2023-04-01T03:45:48.893Z,0.00
2023-04-01T03:46:48.940Z,0.00
2023-04-01T03:47:48.903Z,0.00
2023-04-01T03:48:48.807Z,0.00
2023-04-01T03:49:49.016Z,0.00
2023-04-01T03:50:48.892Z,0.00
2023-04-01T03:51:48.780Z,0.00
2023-04-01T03:52:48.791Z,0.00
2023-04-01T03:53:49.001Z,0.00
2023-04-01T03:54:48.906Z,0.00
2023-04-01T03:55:48.880Z,0.00
2023-04-01T03:56:48.890Z,0.00
2023-04-01T03:57:48.837Z,0.00
2023-04-01T03:58:48.929Z,0.00
2023-04-01T03:59:48.800Z,0.00
2023-04-01T04:00:48.804Z,0.00
2023-04-01T04:01:48.841Z,0.00
2023-04-01T04:02:48.854Z,0.00
2023-04-01T04:03:48.889Z,0.00
2023-04-01T04:04:48.802Z,0.00
2023-04-01T04:05:48.909Z,0.00
2023-04-01T04:06:48.729Z,0.00
2023-04-01T04:07:48.744Z,0.00
2023-04-01T04:08:48.839Z,0.00
2023-04-01T04:09:48.771Z,0.00
2023-04-01T04:10:48.746Z,0.00
2023-04-01T04:11:48.668Z,0.00
2023-04-01T04:12:48.724Z,0.00
2023-04-01T04:13:48.748Z,0.00
2023-04-01T04:14:48.639Z,0.00
2023-04-01T04:15:48.648Z,0.00
2023-04-01T04:16:48.700Z,0.00
2023-04-01T04:17:48.650Z,0.00
2023-04-01T04:18:48.619Z,0.00
2023-04-01T04:19:48.604Z,0.00
2023-04-01T04:20:48.596Z,0.00
2023-04-01T04:21:48.659Z,0.00
2023-04-01T04:22:48.563Z,0.00
2023-04-01T04:23:48.549Z,0.00
2023-04-01T04:24:48.533Z,0.00
2023-04-01T04:25:48.525Z,0.00
2023-04-01T04:26:48.594Z,0.00
2023-04-01T04:27:48.459Z,0.00
2023-04-01T04:28:48.541Z,0.00
2023-04-01T04:29:48.368Z,0.00
2023-04-01T04:30:48.617Z,0.00
2023-04-01T04:31:48.556Z,0.00
2023-04-01T04:32:48.480Z,0.00
2023-04-01T04:33:48.456Z,0.00
2023-04-01T04:34:48.467Z,0.00
2023-04-01T04:35:48.411Z,0.00
2023-04-01T04:36:48.287Z,1.00
2023-04-01T04:37:48.361Z,1.00
2023-04-01T04:38:48.363Z,1.00
2023-04-01T04:39:48.377Z,1.00
2023-04-01T04:40:48.369Z,2.00
2023-04-01T04:41:48.377Z,2.00
2023-04-01T04:42:48.425Z,1.00
2023-04-01T04:43:48.374Z,3.00
2023-04-01T04:44:48.314Z,4.00
2023-04-01T04:45:48.373Z,3.00
2023-04-01T04:46:48.402Z,7.00
2023-04-01T04:47:48.319Z,6.00
2023-04-01T04:48:48.219Z,9.00
2023-04-01T04:49:48.306Z,11.00
2023-04-01T04:50:48.306Z,11.00
2023-04-01T04:51:48.228Z,9.00
2023-04-01T04:52:48.290Z,15.00
2023-04-01T04:53:49.528Z,17.00
2023-04-01T04:54:48.219Z,19.00
2023-04-01T04:55:48.215Z,21.00
2023-04-01T04:56:48.060Z,22.00
2023-04-01T04:57:48.063Z,26.00
2023-04-01T04:58:48.012Z,28.00
2023-04-01T04:59:47.994Z,34.00
2023-04-01T05:00:47.951Z,34.00
2023-04-01T05:01:48.169Z,39.00
2023-04-01T05:02:48.391Z,44.00
2023-04-01T05:03:48.178Z,46.00
2023-04-01T05:04:48.184Z,48.00
2023-04-01T05:05:48.110Z,55.00
2023-04-01T05:06:48.043Z,58.00
2023-04-01T05:07:48.137Z,61.00
2023-04-01T05:08:48.091Z,65.00
2023-04-01T05:09:48.020Z,62.00
2023-04-01T05:10:48.045Z,63.00
2023-04-01T05:11:48.051Z,67.00
2023-04-01T05:12:47.973Z,65.00
2023-04-01T05:13:48.047Z,67.00
2023-04-01T05:14:47.950Z,72.00
2023-04-01T05:15:47.940Z,80.00
2023-04-01T05:16:48.007Z,94.00
2023-04-01T05:17:47.992Z,102.00
2023-04-01T05:18:48.042Z,104.00
2023-04-01T05:19:47.988Z,117.00
2023-04-01T05:20:47.903Z,117.00
2023-04-01T05:21:47.976Z,126.00
2023-04-01T05:22:47.886Z,142.00
2023-04-01T05:23:47.944Z,152.00
2023-04-01T05:24:47.909Z,166.00
2023-04-01T05:25:47.985Z,179.00
2023-04-01T05:26:47.921Z,197.00
2023-04-01T05:27:47.838Z,194.00
2023-04-01T05:28:47.816Z,205.00
2023-04-01T05:29:47.731Z,219.00
2023-04-01T05:30:47.808Z,239.00
2023-04-01T05:31:47.735Z,247.00
2023-04-01T05:32:47.863Z,251.00
2023-04-01T05:33:47.726Z,277.00
2023-04-01T05:34:47.750Z,304.00
2023-04-01T05:35:47.900Z,318.00
2023-04-01T05:36:47.746Z,310.00
2023-04-01T05:37:47.832Z,375.00
2023-04-01T05:38:47.758Z,373.00
2023-04-01T05:39:47.786Z,392.00
2023-04-01T05:40:47.869Z,379.00
2023-04-01T05:41:47.801Z,382.00
2023-04-01T05:42:47.659Z,373.00
2023-04-01T05:43:47.749Z,381.00
2023-04-01T05:44:47.636Z,407.00
2023-04-01T05:45:47.677Z,398.00
2023-04-01T05:46:47.790Z,424.00
2023-04-01T05:47:47.728Z,403.00
2023-04-01T05:48:47.690Z,424.00
2023-04-01T05:49:47.638Z,402.00
2023-04-01T05:50:47.651Z,402.00
2023-04-01T05:51:47.644Z,396.00
2023-04-01T05:52:47.562Z,426.00
2023-04-01T05:53:47.555Z,392.00
2023-04-01T05:54:47.566Z,393.00
2023-04-01T05:55:47.552Z,370.00
2023-04-01T05:56:48.697Z,343.00
2023-04-01T05:57:47.639Z,318.00
2023-04-01T05:58:47.523Z,304.00
2023-04-01T05:59:47.505Z,296.00
2023-04-01T06:00:47.918Z,307.00
2023-04-01T06:01:47.506Z,296.00
2023-04-01T06:02:47.707Z,286.00
2023-04-01T06:03:47.743Z,293.00
2023-04-01T06:04:47.524Z,295.00
2023-04-01T06:05:47.330Z,304.00
2023-04-01T06:06:47.281Z,313.00
2023-04-01T06:07:47.342Z,315.00
2023-04-01T06:08:47.295Z,335.00
2023-04-01T06:09:47.387Z,346.00
2023-04-01T06:10:47.307Z,358.00
2023-04-01T06:11:47.329Z,364.00
2023-04-01T06:12:47.251Z,386.00
2023-04-01T06:13:47.251Z,403.00
2023-04-01T06:14:47.248Z,427.00
2023-04-01T06:15:47.233Z,427.00
2023-04-01T06:16:47.217Z,460.00
2023-04-01T06:17:47.240Z,468.00
2023-04-01T06:18:47.137Z,510.00
2023-04-01T06:19:47.201Z,524.00
2023-04-01T06:20:47.212Z,534.00
2023-04-01T06:21:47.176Z,539.00
2023-04-01T06:22:47.155Z,553.00
2023-04-01T06:23:47.172Z,555.00
2023-04-01T06:24:47.210Z,574.00
2023-04-01T06:25:47.225Z,597.00
2023-04-01T06:26:47.217Z,644.00
2023-04-01T06:27:47.206Z,670.00
2023-04-01T06:28:47.216Z,665.00
2023-04-01T06:29:47.233Z,683.00
2023-04-01T06:30:47.342Z,686.00
2023-04-01T06:31:47.379Z,698.00
2023-04-01T06:32:47.097Z,758.00
2023-04-01T06:33:47.011Z,793.00
2023-04-01T06:34:47.113Z,789.00
2023-04-01T06:35:47.133Z,739.00
2023-04-01T06:36:47.255Z,724.00
2023-04-01T06:37:47.197Z,720.00
2023-04-01T06:38:47.168Z,734.00
2023-04-01T06:39:46.985Z,774.00
2023-04-01T06:40:47.319Z,796.00
2023-04-01T06:41:47.077Z,844.00
2023-04-01T06:42:47.063Z,835.00
2023-04-01T06:43:47.047Z,826.00
2023-04-01T06:44:47.005Z,792.00
2023-04-01T06:45:47.187Z,853.00
2023-04-01T06:46:47.030Z,882.00
2023-04-01T06:47:47.080Z,843.00
2023-04-01T06:48:47.039Z,876.00
2023-04-01T06:49:47.002Z,901.00
2023-04-01T06:50:47.056Z,910.00
2023-04-01T06:51:46.955Z,918.00
2023-04-01T06:52:46.926Z,950.00
2023-04-01T06:53:46.985Z,984.00
2023-04-01T06:54:46.972Z,954.00
2023-04-01T06:55:46.767Z,875.00
2023-04-01T06:56:47.071Z,899.00
2023-04-01T06:57:47.013Z,945.00
2023-04-01T06:58:46.858Z,985.00
2023-04-01T06:59:46.878Z,969.00
2023-04-01T07:00:46.698Z,908.00
2023-04-01T07:01:46.970Z,883.00
2023-04-01T07:02:46.870Z,987.00
2023-04-01T07:03:46.889Z,1049.00
2023-04-01T07:04:46.881Z,1083.00
2023-04-01T07:05:46.837Z,1082.00
2023-04-01T07:06:46.792Z,1132.00
2023-04-01T07:07:46.854Z,1157.00
2023-04-01T07:08:46.878Z,1214.00
2023-04-01T07:09:46.838Z,1136.00
2023-04-01T07:10:46.762Z,1265.00
2023-04-01T07:11:46.774Z,1325.00
2023-04-01T07:12:46.804Z,1349.00
2023-04-01T07:13:46.969Z,1444.00
2023-04-01T07:14:46.697Z,1481.00
2023-04-01T07:15:46.722Z,1432.00
2023-04-01T07:16:46.771Z,1504.00
2023-04-01T07:17:46.773Z,1598.00
2023-04-01T07:18:46.885Z,1685.00
2023-04-01T07:19:46.647Z,1720.00
2023-04-01T07:20:46.647Z,1694.00
2023-04-01T07:21:46.730Z,1677.00
2023-04-01T07:22:46.637Z,1658.00
2023-04-01T07:23:46.609Z,1601.00
2023-04-01T07:24:46.597Z,1539.00
2023-04-01T07:25:46.605Z,1503.00
2023-04-01T07:26:47.173Z,1472.00
2023-04-01T07:27:46.649Z,1453.00
2023-04-01T07:28:46.707Z,1440.00
2023-04-01T07:29:46.673Z,1454.00
2023-04-01T07:30:46.612Z,1387.00
2023-04-01T07:31:46.525Z,1329.00
2023-04-01T07:32:46.536Z,1327.00
2023-04-01T07:33:46.522Z,1342.00
2023-04-01T07:34:46.614Z,1299.00
2023-04-01T07:35:46.561Z,1330.00
2023-04-01T07:36:46.520Z,1309.00
2023-04-01T07:37:46.350Z,1337.00
2023-04-01T07:38:46.385Z,1398.00
2023-04-01T07:39:46.482Z,1506.00
2023-04-01T07:40:46.466Z,1538.00
2023-04-01T07:41:46.456Z,1642.00
2023-04-01T07:42:46.449Z,1656.00
2023-04-01T07:43:46.461Z,1722.00
2023-04-01T07:44:46.464Z,1693.00
2023-04-01T07:45:46.396Z,1710.00
2023-04-01T07:46:46.739Z,1748.00
2023-04-01T07:47:46.423Z,1739.00
2023-04-01T07:48:46.361Z,1737.00
2023-04-01T07:49:46.483Z,1686.00
2023-04-01T07:50:48.027Z,1676.00
2023-04-01T07:51:46.400Z,1571.00
2023-04-01T07:52:46.354Z,1507.00
2023-04-01T07:53:46.322Z,1500.00
2023-04-01T07:54:46.297Z,1492.00
2023-04-01T07:55:46.413Z,1505.00
2023-04-01T07:56:46.349Z,1543.00
2023-04-01T07:57:46.353Z,1516.00
2023-04-01T07:58:46.379Z,1534.00
2023-04-01T07:59:46.286Z,1527.00
2023-04-01T08:00:46.302Z,1521.00
2023-04-01T08:01:46.291Z,1546.00
2023-04-01T08:02:46.361Z,1574.00
2023-04-01T08:03:46.442Z,1587.00
2023-04-01T08:04:46.319Z,1620.00
2023-04-01T08:05:46.229Z,1574.00
2023-04-01T08:06:46.164Z,1624.00
2023-04-01T08:07:46.152Z,1773.00
2023-04-01T08:08:46.145Z,1803.00
2023-04-01T08:09:46.130Z,1869.00
2023-04-01T08:10:46.110Z,1859.00
2023-04-01T08:11:46.104Z,1988.00
2023-04-01T08:12:46.102Z,2051.00
2023-04-01T08:13:46.102Z,2061.00
2023-04-01T08:14:46.084Z,2045.00
2023-04-01T08:15:46.136Z,2082.00
2023-04-01T08:16:46.117Z,1991.00
2023-04-01T08:17:46.135Z,1968.00
2023-04-01T08:18:46.036Z,1977.00
2023-04-01T08:19:46.040Z,1900.00
2023-04-01T08:20:46.082Z,1828.00
2023-04-01T08:21:46.082Z,1820.00
2023-04-01T08:22:46.072Z,1861.00
2023-04-01T08:23:46.120Z,1896.00
2023-04-01T08:24:47.910Z,2028.00
2023-04-01T08:25:45.982Z,2125.00
2023-04-01T08:26:45.957Z,2271.00
2023-04-01T08:27:46.001Z,2436.00
2023-04-01T08:28:45.982Z,2143.00
2023-04-01T08:29:45.997Z,2257.00
2023-04-01T08:30:45.980Z,2274.00
2023-04-01T08:31:45.953Z,2385.00
2023-04-01T08:32:45.939Z,2267.00
2023-04-01T08:33:45.887Z,2269.00
2023-04-01T08:34:45.990Z,2545.00
2023-04-01T08:35:46.004Z,2831.00
2023-04-01T08:36:45.873Z,2564.00
2023-04-01T08:37:45.731Z,2967.00
2023-04-01T08:38:45.904Z,2809.00
2023-04-01T08:39:45.907Z,2742.00
2023-04-01T08:40:45.881Z,2705.00
2023-04-01T08:41:45.831Z,2716.00
2023-04-01T08:42:45.787Z,3061.00
2023-04-01T08:43:45.813Z,2891.00
2023-04-01T08:44:45.688Z,2911.00
2023-04-01T08:45:45.751Z,3172.00
2023-04-01T08:46:45.775Z,3240.00
2023-04-01T08:47:45.871Z,3059.00
2023-04-01T08:48:45.723Z,3008.00
2023-04-01T08:49:45.847Z,2812.00
2023-04-01T08:50:45.723Z,2618.00
2023-04-01T08:51:45.847Z,2565.00
2023-04-01T08:52:45.802Z,2498.00
2023-04-01T08:53:45.598Z,2494.00
2023-04-01T08:54:45.612Z,2568.00
2023-04-01T08:55:45.744Z,2471.00
2023-04-01T08:56:45.574Z,2606.00
2023-04-01T08:57:45.502Z,2450.00
2023-04-01T08:58:45.496Z,2474.00
2023-04-01T08:59:45.566Z,2427.00
2023-04-01T09:00:45.713Z,2494.00
2023-04-01T09:01:45.740Z,2535.00
2023-04-01T09:02:45.686Z,2535.00
2023-04-01T09:03:45.746Z,2798.00
2023-04-01T09:04:45.602Z,3018.00
2023-04-01T09:05:45.580Z,3069.00
2023-04-01T09:06:45.647Z,3010.00
2023-04-01T09:07:45.537Z,2942.00
2023-04-01T09:08:45.581Z,3000.00
2023-04-01T09:09:45.454Z,3192.00
2023-04-01T09:10:45.421Z,3323.00
2023-04-01T09:11:45.464Z,3410.00
2023-04-01T09:12:45.418Z,3878.00
2023-04-01T09:13:45.328Z,4027.00
2023-04-01T09:14:45.357Z,4613.00
2023-04-01T09:15:45.420Z,4147.00
2023-04-01T09:16:45.346Z,3706.00
2023-04-01T09:17:45.496Z,3316.00
2023-04-01T09:18:45.384Z,2958.00
2023-04-01T09:19:45.307Z,2735.00
2023-04-01T09:20:45.322Z,2595.00
2023-04-01T09:21:45.410Z,2595.00
2023-04-01T09:22:45.362Z,2674.00
2023-04-01T09:23:45.237Z,2678.00
2023-04-01T09:24:45.291Z,2625.00
2023-04-01T09:25:45.232Z,2781.00
2023-04-01T09:26:45.443Z,2780.00
2023-04-01T09:27:45.395Z,2867.00
2023-04-01T09:28:45.460Z,2993.00
2023-04-01T09:29:45.358Z,2978.00
2023-04-01T09:30:45.365Z,2855.00
2023-04-01T09:31:45.525Z,2794.00
2023-04-01T09:32:45.445Z,2688.00
2023-04-01T09:33:45.312Z,2703.00
2023-04-01T09:34:45.357Z,2539.00
2023-04-01T09:35:45.330Z,2555.00
2023-04-01T09:36:45.219Z,2396.00
2023-04-01T09:37:45.250Z,2392.00
2023-04-01T09:38:45.132Z,2441.00
2023-04-01T09:39:45.061Z,2428.00
2023-04-01T09:40:45.248Z,2337.00
2023-04-01T09:41:45.036Z,2426.00
2023-04-01T09:42:45.195Z,2347.00
2023-04-01T09:43:45.335Z,2221.00
2023-04-01T09:44:45.170Z,2286.00
2023-04-01T09:45:45.223Z,2204.00
2023-04-01T09:46:45.178Z,2270.00
2023-04-01T09:47:45.283Z,2362.00
2023-04-01T09:48:44.967Z,2397.00
2023-04-01T09:49:45.182Z,2281.00
2023-04-01T09:50:45.080Z,2524.00
2023-04-01T09:51:45.083Z,2531.00
2023-04-01T09:52:46.487Z,2604.00
2023-04-01T09:53:45.117Z,2652.00
2023-04-01T09:54:45.172Z,2671.00
2023-04-01T09:55:44.920Z,2848.00
2023-04-01T09:56:44.933Z,3108.00
2023-04-01T09:57:44.969Z,3357.00
2023-04-01T09:58:45.076Z,3693.00
2023-04-01T09:59:44.868Z,3583.00
2023-04-01T10:00:45.086Z,3966.00
2023-04-01T10:01:45.032Z,3877.00
2023-04-01T10:02:44.854Z,4043.00
2023-04-01T10:03:44.862Z,4247.00
2023-04-01T10:04:44.850Z,4444.00
2023-04-01T10:05:44.885Z,4569.00
2023-04-01T10:06:44.892Z,5035.00
2023-04-01T10:07:44.785Z,5122.00
2023-04-01T10:08:44.849Z,5570.00
2023-04-01T10:09:44.771Z,5978.00
2023-04-01T10:10:44.901Z,6023.00
2023-04-01T10:11:44.749Z,6169.00
2023-04-01T10:12:44.719Z,6557.00
2023-04-01T10:13:44.727Z,5936.00
2023-04-01T10:14:44.708Z,6876.00
2023-04-01T10:15:44.808Z,6060.00
2023-04-01T10:16:44.730Z,5302.00
2023-04-01T10:17:44.705Z,5755.00
2023-04-01T10:18:44.646Z,4898.00
2023-04-01T10:19:44.701Z,4854.00
2023-04-01T10:20:44.628Z,4203.00
2023-04-01T10:21:44.606Z,3944.00
2023-04-01T10:22:44.651Z,3822.00
2023-04-01T10:23:44.724Z,3444.00
2023-04-01T10:24:44.705Z,3656.00
2023-04-01T10:25:44.768Z,3987.00
2023-04-01T10:26:44.772Z,4642.00
2023-04-01T10:27:44.685Z,4971.00
2023-04-01T10:28:44.713Z,4856.00
2023-04-01T10:29:44.708Z,5540.00
2023-04-01T10:30:44.710Z,5622.00
2023-04-01T10:31:44.801Z,5951.00
2023-04-01T10:32:44.809Z,6669.00
2023-04-01T10:33:44.739Z,8090.00
2023-04-01T10:34:44.649Z,7199.00
2023-04-01T10:35:44.671Z,6680.00
2023-04-01T10:36:44.627Z,5713.00
2023-04-01T10:37:44.608Z,4561.00
2023-04-01T10:38:44.660Z,3792.00
2023-04-01T10:39:44.555Z,3197.00
2023-04-01T10:40:44.641Z,3537.00
2023-04-01T10:41:44.389Z,3353.00
2023-04-01T10:42:44.534Z,2994.00
2023-04-01T10:43:44.507Z,3024.00
2023-04-01T10:44:44.622Z,3498.00
2023-04-01T10:45:44.568Z,3653.00
2023-04-01T10:46:44.501Z,3939.00
2023-04-01T10:47:44.521Z,4145.00
2023-04-01T10:48:44.489Z,4347.00
2023-04-01T10:49:44.542Z,4506.00
2023-04-01T10:50:44.451Z,4396.00
2023-04-01T10:51:44.437Z,4265.00
2023-04-01T10:52:44.427Z,4496.00
2023-04-01T10:53:44.410Z,4340.00
2023-04-01T10:54:44.546Z,4264.00
2023-04-01T10:55:44.452Z,4218.00
2023-04-01T10:56:44.517Z,4214.00
2023-04-01T10:57:44.403Z,4411.00
2023-04-01T10:58:44.388Z,4465.00
2023-04-01T10:59:44.481Z,4575.00
2023-04-01T11:00:44.344Z,4772.00
2023-04-01T11:01:44.502Z,4987.00
2023-04-01T11:02:44.415Z,4428.00
2023-04-01T11:03:44.374Z,4531.00
2023-04-01T11:04:44.337Z,4718.00
2023-04-01T11:05:44.361Z,4510.00
2023-04-01T11:06:44.297Z,4532.00
2023-04-01T11:07:48.292Z,4518.00
2023-04-01T11:08:44.314Z,4527.00
2023-04-01T11:09:44.239Z,4540.00
2023-04-01T11:10:44.308Z,4526.00
2023-04-01T11:11:44.235Z,4605.00
2023-04-01T11:12:44.223Z,4724.00
2023-04-01T11:13:44.264Z,4749.00
2023-04-01T11:14:44.221Z,4814.00
2023-04-01T11:15:44.249Z,4833.00
2023-04-01T11:16:44.340Z,4870.00
2023-04-01T11:17:44.266Z,4732.00
2023-04-01T11:18:44.216Z,5175.00
2023-04-01T11:19:44.219Z,5108.00
2023-04-01T11:20:44.214Z,5299.00
2023-04-01T11:21:44.268Z,5375.00
2023-04-01T11:22:44.256Z,5377.00
2023-04-01T11:23:51.983Z,5268.00
2023-04-01T11:24:44.156Z,5447.00
2023-04-01T11:25:44.125Z,5464.00
2023-04-01T11:26:44.153Z,5887.00
2023-04-01T11:27:44.094Z,5152.00
2023-04-01T11:28:44.157Z,5194.00
2023-04-01T11:29:56.751Z,4984.00
2023-04-01T11:30:44.107Z,4781.00
2023-04-01T11:31:43.989Z,4646.00
2023-04-01T11:32:44.147Z,4576.00
2023-04-01T11:33:44.137Z,4323.00
2023-04-01T11:34:44.047Z,4713.00
2023-04-01T11:35:44.074Z,5010.00
2023-04-01T11:36:44.070Z,5054.00
2023-04-01T11:37:44.032Z,5161.00
2023-04-01T11:38:43.842Z,5155.00
2023-04-01T11:39:43.837Z,5102.00
2023-04-01T11:40:43.817Z,4980.00
2023-04-01T11:41:43.915Z,4931.00
2023-04-01T11:42:44.019Z,4914.00
2023-04-01T11:43:44.026Z,4914.00
2023-04-01T11:44:44.002Z,4898.00
2023-04-01T11:45:43.885Z,4887.00
2023-04-01T11:46:44.032Z,4850.00
2023-04-01T11:47:44.010Z,4687.00
2023-04-01T11:48:45.875Z,4652.00
2023-04-01T11:49:43.934Z,4550.00
2023-04-01T11:50:43.999Z,4411.00
2023-04-01T11:51:43.918Z,4102.00
2023-04-01T11:52:43.909Z,3970.00
2023-04-01T11:53:43.886Z,3660.00
2023-04-01T11:54:43.867Z,3620.00
2023-04-01T11:55:43.844Z,3624.00
2023-04-01T11:56:43.923Z,3689.00
2023-04-01T11:57:43.909Z,3509.00
2023-04-01T11:58:43.824Z,3256.00
2023-04-01T11:59:43.806Z,3436.00
2023-04-01T12:00:43.884Z,3399.00
2023-04-01T12:01:43.639Z,3288.00
2023-04-01T12:02:43.848Z,3233.00
2023-04-01T12:03:43.743Z,3012.00
2023-04-01T12:04:43.618Z,3137.00
2023-04-01T12:05:43.616Z,2950.00
2023-04-01T12:06:43.566Z,2834.00
2023-04-01T12:07:45.359Z,2762.00
2023-04-01T12:08:43.575Z,2734.00
2023-04-01T12:09:43.523Z,3001.00
2023-04-01T12:10:43.485Z,3036.00
2023-04-01T12:11:43.505Z,2806.00
2023-04-01T12:12:54.185Z,2824.00
2023-04-01T12:13:43.457Z,2791.00
2023-04-01T12:14:43.495Z,2525.00
2023-04-01T12:15:43.444Z,2659.00
2023-04-01T12:16:43.591Z,2652.00
2023-04-01T12:17:43.545Z,2934.00
2023-04-01T12:18:43.449Z,3469.00
2023-04-01T12:19:43.446Z,3560.00
2023-04-01T12:20:43.372Z,3179.00
2023-04-01T12:21:43.416Z,3347.00
2023-04-01T12:22:43.418Z,3572.00
2023-04-01T12:23:43.584Z,3327.00
2023-04-01T12:24:43.536Z,3526.00
2023-04-01T12:25:43.509Z,3489.00
2023-04-01T12:26:43.507Z,3506.00
2023-04-01T12:27:43.435Z,3434.00
2023-04-01T12:28:43.536Z,3334.00
2023-04-01T12:29:43.457Z,3386.00
2023-04-01T12:30:43.534Z,3384.00
2023-04-01T12:31:43.505Z,3424.00
2023-04-01T12:32:43.423Z,3547.00
2023-04-01T12:33:43.442Z,3723.00
2023-04-01T12:34:43.373Z,3904.00
2023-04-01T12:35:43.493Z,3900.00
2023-04-01T12:36:43.384Z,3868.00
2023-04-01T12:37:43.259Z,3837.00